Time;durP1;ratioP1;P1;durP2;ratioP2;P2;SDS_P1;SDS_P2;PMS_P1;PMS_P2;Temp;Humidity;BMP_temperature;BMP_pressure;BME280_temperature;BME280_humidity;BME280_pressure;Samples;Min_cycle;Max_cycle;Signal;HPM_P1;HPM_P2
2022/09/15 00:00:37;;;;;;;13.43;5.65;;;;;;;16.61;68.60;100639.13;4996750;28;20065;-36
2022/09/15 00:03:02;;;;;;;14.55;5.60;;;;;;;16.59;68.96;100646.72;5014550;28;20061;-36
2022/09/15 00:05:27;;;;;;;24.13;7.05;;;;;;;16.60;68.85;100648.34;5014728;28;20018;-36
2022/09/15 00:07:53;;;;;;;15.30;6.28;;;;;;;16.65;68.85;100653.94;5014253;28;20053;-36
2022/09/15 00:10:18;;;;;;;14.52;6.75;;;;;;;16.67;68.88;100649.94;4997171;28;20057;-36
2022/09/15 00:12:43;;;;;;;17.42;6.70;;;;;;;16.72;68.96;100646.56;5014806;28;20032;-36
2022/09/15 00:15:12;;;;;;;15.18;6.53;;;;;;;16.77;69.00;100652.16;5015501;28;20026;-36
2022/09/15 00:17:37;;;;;;;17.50;6.32;;;;;;;16.80;69.28;100648.16;5014971;28;20026;-36
2022/09/15 00:20:05;;;;;;;14.27;5.78;;;;;;;16.82;68.91;100646.03;5014473;28;20033;-36
2022/09/15 00:22:30;;;;;;;12.77;5.60;;;;;;;16.83;68.92;100636.84;4997825;28;20040;-36
2022/09/15 00:24:55;;;;;;;17.27;5.90;;;;;;;16.85;69.44;100640.97;5014991;28;20076;-36
2022/09/15 00:27:21;;;;;;;14.23;5.28;;;;;;;16.87;69.79;100636.13;5014323;28;20029;-35
2022/09/15 00:29:47;;;;;;;12.27;4.75;;;;;;;16.88;70.39;100637.81;5006717;28;20026;-36
2022/09/15 00:32:12;;;;;;;11.75;5.00;;;;;;;16.92;70.32;100642.78;5014124;28;20116;-35
2022/09/15 00:34:38;;;;;;;12.00;5.10;;;;;;;16.91;70.37;100636.50;5014886;28;20117;-37
2022/09/15 00:37:03;;;;;;;13.48;4.78;;;;;;;16.91;70.37;100643.84;5014697;28;20130;-36
2022/09/15 00:39:29;;;;;;;17.85;4.20;;;;;;;16.96;70.32;100646.72;5014217;28;20029;-36
2022/09/15 00:41:54;;;;;;;16.70;4.40;;;;;;;16.96;70.40;100644.00;5013917;28;20041;-36
2022/09/15 00:44:35;;;;;;;10.57;4.65;;;;;;;16.96;70.66;100649.44;5014638;28;20014;-36
2022/09/15 00:47:02;;;;;;;14.63;3.63;;;;;;;16.92;70.78;100646.31;5014313;28;20038;-36
2022/09/15 00:49:32;;;;;;;10.13;3.40;;;;;;;16.96;70.97;100654.88;4995373;28;20029;-35
2022/09/15 00:52:38;;;;;;;13.43;3.83;;;;;;;16.99;70.95;100654.41;4996710;28;20112;-36
2022/09/15 00:55:07;;;;;;;15.10;3.03;;;;;;;16.98;71.09;100655.44;5011639;28;20445;-36
2022/09/15 00:57:38;;;;;;;16.52;3.78;;;;;;;17.01;71.23;100654.97;4996208;28;20038;-36
2022/09/15 01:00:10;;;;;;;16.00;3.58;;;;;;;17.06;70.91;100653.25;4994443;28;20053;-36
2022/09/15 01:02:36;;;;;;;14.35;3.42;;;;;;;17.02;71.42;100651.22;4997212;28;20033;-35
2022/09/15 01:05:06;;;;;;;13.05;2.72;;;;;;;17.01;71.12;100649.53;4980372;28;20120;-36
2022/09/15 01:07:42;;;;;;;12.23;2.90;;;;;;;16.97;70.64;100662.78;4996116;28;20100;-37
2022/09/15 01:10:30;;;;;;;12.20;3.20;;;;;;;16.92;70.67;100661.81;4996557;28;20117;-35
2022/09/15 01:12:58;;;;;;;12.73;3.60;;;;;;;16.87;71.51;100660.59;5014174;28;20034;-36
2022/09/15 01:15:30;;;;;;;;;;;;;;;16.85;71.36;100651.00;5014728;28;20060;-36
2022/09/15 01:18:11;;;;;;;15.02;2.78;;;;;;;16.86;71.59;100652.69;4997224;28;19913;-36
2022/09/15 01:20:50;;;;;;;12.40;2.55;;;;;;;16.95;71.64;100655.91;5013762;28;20065;-36
2022/09/15 01:23:47;;;;;;;13.52;2.80;;;;;;;16.94;72.06;100654.25;4996743;28;20105;-36
2022/09/15 01:26:21;;;;;;;9.37;2.33;;;;;;;16.95;72.56;100666.78;5014066;28;20038;-36
2022/09/15 01:29:18;;;;;;;11.73;2.13;;;;;;;16.92;72.73;100659.09;5013033;28;20038;-35
2022/09/15 01:35:09;;;;;;;10.32;1.90;;;;;;;16.77;72.79;100660.31;5013208;28;20160;-35
2022/09/15 01:37:37;;;;;;;11.82;2.53;;;;;;;16.61;73.70;100658.16;4996156;28;20037;-35
2022/09/15 01:40:04;;;;;;;15.00;1.92;;;;;;;16.53;73.98;100656.56;4995906;28;20041;-36
2022/09/15 01:42:30;;;;;;;8.40;1.70;;;;;;;16.47;74.37;100662.91;5013490;28;20052;-36
2022/09/15 01:45:06;;;;;;;30.98;2.92;;;;;;;16.42;74.41;100660.88;4996213;28;20139;-36
2022/09/15 01:47:33;;;;;;;12.35;2.35;;;;;;;16.39;74.81;100666.75;4995927;28;20033;-36
2022/09/15 01:50:04;;;;;;;14.80;2.38;;;;;;;16.42;75.04;100655.44;4995411;28;20111;-35
2022/09/15 01:52:29;;;;;;;11.85;1.70;;;;;;;16.45;74.66;100659.56;4997506;28;20034;-37
2022/09/15 01:54:56;;;;;;;8.27;1.83;;;;;;;16.49;74.42;100662.69;5014758;28;20045;-36
2022/09/15 01:57:22;;;;;;;20.02;2.22;;;;;;;16.49;74.39;100657.25;5014769;28;20100;-36
2022/09/15 01:59:53;;;;;;;16.52;1.80;;;;;;;16.52;74.26;100662.25;4984852;28;20598;-36
2022/09/15 02:02:25;;;;;;;10.55;1.85;;;;;;;16.50;73.94;100661.63;4994934;28;20465;-36
2022/09/15 02:05:06;;;;;;;15.68;2.17;;;;;;;16.45;74.59;100667.72;5012942;28;20033;-36
2022/09/15 02:07:51;;;;;;;16.77;1.60;;;;;;;16.50;73.90;100661.63;5053183;23;20056;-78
2022/09/15 02:10:40;;;;;;;13.20;2.35;;;;;;;16.51;73.45;100661.41;5032333;28;20424;-78
2022/09/15 02:13:15;;;;;;;15.07;1.83;;;;;;;16.55;72.74;100668.03;5014342;28;20029;-76
2022/09/15 02:15:50;;;;;;;8.85;1.50;;;;;;;16.55;72.51;100669.94;5008759;28;20073;-78
2022/09/15 02:18:33;;;;;;;13.38;1.90;;;;;;;16.53;71.75;100667.44;5019365;28;20025;-75
2022/09/15 02:21:11;;;;;;;21.17;2.50;;;;;;;16.56;71.85;100658.00;5013869;28;20033;-75
2022/09/15 02:23:43;;;;;;;19.73;1.67;;;;;;;16.54;71.63;100662.84;5010998;28;20040;-75
2022/09/15 02:26:12;;;;;;;7.70;1.90;;;;;;;16.57;71.73;100656.97;5031845;28;20029;-76
2022/09/15 02:28:39;;;;;;;11.02;1.65;;;;;;;16.62;71.02;100657.94;5014815;28;20060;-76
2022/09/15 02:31:08;;;;;;;17.00;2.38;;;;;;;16.63;70.94;100665.03;5017988;28;20026;-77
2022/09/15 02:34:01;;;;;;;12.10;1.85;;;;;;;16.63;71.02;100667.75;5020338;28;20445;-76
2022/09/15 02:36:28;;;;;;;29.27;2.28;;;;;;;16.58;71.24;100664.88;5012153;28;20053;-75
2022/09/15 02:39:03;;;;;;;15.75;1.83;;;;;;;16.57;71.53;100662.41;5031341;28;20025;-75
2022/09/15 02:41:29;;;;;;;9.80;1.70;;;;;;;16.58;71.41;100667.59;5014581;28;20113;-76
2022/09/15 02:43:54;;;;;;;7.68;2.15;;;;;;;16.59;70.70;100665.72;5030845;28;20473;-75
2022/09/15 02:46:21;;;;;;;16.05;2.33;;;;;;;16.57;70.52;100673.25;5033786;28;20042;-75
2022/09/15 02:48:46;;;;;;;10.15;1.73;;;;;;;16.57;70.30;100665.13;5013847;28;20060;-76
2022/09/15 02:51:13;;;;;;;8.77;1.77;;;;;;;16.61;69.84;100671.75;5031460;28;20053;-77
2022/09/15 02:53:38;;;;;;;10.05;2.05;;;;;;;16.60;69.84;100670.09;5034598;28;20025;-76
2022/09/15 02:56:05;;;;;;;16.45;2.35;;;;;;;16.63;69.67;100670.47;5015700;28;20040;-77
2022/09/15 02:58:34;;;;;;;8.35;1.90;;;;;;;16.62;70.06;100670.69;5033446;28;20021;-76
2022/09/15 03:01:06;;;;;;;17.90;2.00;;;;;;;16.59;70.10;100663.84;5031285;28;20120;-78
2022/09/15 03:03:32;;;;;;;10.00;1.90;;;;;;;16.56;70.64;100668.88;5013628;28;20045;-76
2022/09/15 03:06:15;;;;;;;15.20;2.22;;;;;;;16.55;71.17;100667.22;5030485;28;20037;-76
2022/09/15 03:08:51;;;;;;;12.75;2.38;;;;;;;16.54;71.11;100671.00;5015543;28;20504;-76
2022/09/15 03:11:19;;;;;;;26.70;1.90;;;;;;;16.52;71.16;100671.22;5030825;28;20499;-76
2022/09/15 03:13:44;;;;;;;8.52;1.67;;;;;;;16.53;70.74;100675.59;5030170;28;20025;-77
2022/09/15 03:16:11;;;;;;;7.82;1.60;;;;;;;16.57;70.32;100670.53;5013760;28;20026;-76
2022/09/15 03:18:37;;;;;;;8.50;1.60;;;;;;;16.64;69.83;100676.72;5031250;28;20041;-77
2022/09/15 03:21:04;;;;;;;10.05;1.50;;;;;;;16.59;69.86;100673.88;5031423;28;20380;-77
2022/09/15 03:23:30;;;;;;;9.27;1.33;;;;;;;16.58;69.97;100674.91;5030763;28;20030;-76
2022/09/15 03:25:57;;;;;;;9.98;1.75;;;;;;;16.53;70.12;100682.91;5013211;28;20111;-76
2022/09/15 03:28:23;;;;;;;11.05;1.50;;;;;;;16.52;70.09;100686.69;5031099;28;20481;-76
2022/09/15 03:30:48;;;;;;;11.18;1.50;;;;;;;16.50;70.12;100686.91;5030605;28;20121;-77
2022/09/15 03:33:13;;;;;;;7.75;1.45;;;;;;;16.51;69.81;100693.16;5030251;28;20179;-77
2022/09/15 03:35:39;;;;;;;14.73;1.80;;;;;;;16.51;69.98;100688.59;5031459;28;20029;-77
2022/09/15 03:38:04;;;;;;;5.72;1.40;;;;;;;16.53;69.60;100688.34;5030888;28;20034;-76
2022/09/15 03:40:29;;;;;;;7.65;1.88;;;;;;;16.51;69.60;100685.00;5030102;28;20037;-75
2022/09/15 03:42:55;;;;;;;12.52;2.13;;;;;;;16.51;69.66;100693.16;5030934;28;20135;-75
2022/09/15 03:45:20;;;;;;;7.90;1.20;;;;;;;16.50;69.10;100681.47;5030370;28;20130;-74
2022/09/15 03:47:45;;;;;;;5.63;1.60;;;;;;;16.50;68.72;100689.63;5030241;28;20109;-76
2022/09/15 03:50:11;;;;;;;18.95;2.08;;;;;;;16.48;68.31;100689.00;5030919;28;20049;-75
2022/09/15 03:52:36;;;;;;;11.57;1.70;;;;;;;16.51;67.94;100690.44;5028419;28;20540;-75
2022/09/15 03:55:01;;;;;;;11.75;1.70;;;;;;;16.53;67.27;100685.63;5030749;28;20560;-76
2022/09/15 03:57:26;;;;;;;7.72;1.48;;;;;;;16.54;66.95;100681.88;5030313;28;20494;-78
2022/09/15 03:59:52;;;;;;;9.00;1.48;;;;;;;16.57;67.05;100675.97;5031600;28;20437;-77
2022/09/15 04:02:18;;;;;;;7.47;1.70;;;;;;;16.56;66.64;100687.88;5029171;28;20140;-77
2022/09/15 04:04:43;;;;;;;8.57;1.80;;;;;;;16.58;65.80;100683.06;5012631;28;20072;-77
2022/09/15 04:07:08;;;;;;;8.18;1.70;;;;;;;16.60;66.04;100683.69;5011694;28;20089;-77
2022/09/15 04:09:36;;;;;;;9.50;1.85;;;;;;;16.63;65.99;100683.22;5012037;28;20452;-77
2022/09/15 04:12:02;;;;;;;10.95;1.67;;;;;;;16.59;66.84;100680.13;5029850;28;20033;-77
2022/09/15 04:14:28;;;;;;;13.75;1.95;;;;;;;16.62;66.63;100684.28;5029957;28;20138;-77
2022/09/15 04:16:53;;;;;;;10.55;1.75;;;;;;;16.60;66.55;100684.50;5030358;28;20477;-78
2022/09/15 04:19:18;;;;;;;10.90;1.50;;;;;;;16.64;67.28;100685.72;5012557;28;20029;-77
2022/09/15 04:21:46;;;;;;;9.70;1.88;;;;;;;16.68;67.82;100686.09;5028705;28;20453;-76
2022/09/15 04:24:11;;;;;;;6.95;1.48;;;;;;;16.65;68.68;100692.81;5033439;28;20033;-76
2022/09/15 04:26:37;;;;;;;7.18;1.25;;;;;;;16.68;69.11;100695.06;5033934;28;20083;-76
2022/09/15 04:29:04;;;;;;;9.65;1.50;;;;;;;16.68;69.68;100699.69;5033538;28;20029;-77
2022/09/15 04:31:30;;;;;;;13.10;1.63;;;;;;;16.61;70.06;100698.91;5017088;28;20117;-77
2022/09/15 04:33:56;;;;;;;11.43;1.50;;;;;;;16.53;70.08;100691.06;5027321;28;20136;-77
2022/09/15 04:36:23;;;;;;;5.22;1.10;;;;;;;16.52;69.83;100689.41;5032842;28;20045;-76
2022/09/15 04:38:49;;;;;;;7.72;1.58;;;;;;;16.51;69.32;100696.72;5009355;28;20033;-76
2022/09/15 04:41:16;;;;;;;9.73;1.58;;;;;;;16.52;69.14;100695.66;5042067;28;20057;-76
2022/09/15 04:43:42;;;;;;;9.73;1.33;;;;;;;16.50;69.11;100688.78;5036345;28;20029;-75
2022/09/15 04:46:07;;;;;;;8.48;1.60;;;;;;;16.51;68.85;100693.16;5029775;28;20025;-75
2022/09/15 04:48:33;;;;;;;15.68;1.65;;;;;;;16.47;69.10;100698.22;5033095;28;20037;-75
2022/09/15 04:51:02;;;;;;;8.95;1.75;;;;;;;16.49;68.70;100689.88;5027032;28;20109;-75
2022/09/15 04:53:28;;;;;;;7.32;2.15;;;;;;;16.42;68.93;100685.31;5024582;28;20033;-75
2022/09/15 04:56:03;;;;;;;17.88;1.83;;;;;;;16.42;68.17;100688.03;5025670;28;20029;-77
2022/09/15 04:58:28;;;;;;;5.85;1.48;;;;;;;16.41;67.57;100680.94;5028852;28;20076;-75
2022/09/15 05:00:54;;;;;;;4.72;1.30;;;;;;;16.41;67.39;100688.25;5028977;28;20030;-76
2022/09/15 05:03:19;;;;;;;7.40;1.58;;;;;;;16.36;67.17;100675.34;5032605;28;20116;-77
2022/09/15 05:05:46;;;;;;;6.18;1.92;;;;;;;16.28;67.30;100675.63;5015143;28;20109;-75
2022/09/15 05:08:11;;;;;;;6.70;1.93;;;;;;;16.23;67.34;100675.47;5032860;28;20042;-76
2022/09/15 05:10:37;;;;;;;9.65;1.80;;;;;;;16.21;67.97;100672.16;5015290;28;20072;-75
2022/09/15 05:13:02;;;;;;;12.65;1.70;;;;;;;16.16;68.03;100680.13;4998825;28;20022;-76
2022/09/15 05:15:27;;;;;;;11.07;2.17;;;;;;;16.12;69.00;100678.94;5033591;28;20103;-75
2022/09/15 05:17:53;;;;;;;6.88;1.25;;;;;;;16.12;68.31;100677.03;5018352;28;20117;-75
2022/09/15 05:20:18;;;;;;;12.73;1.70;;;;;;;16.12;68.06;100676.22;5009906;28;20061;-76
2022/09/15 05:22:44;;;;;;;13.68;2.38;;;;;;;16.13;68.78;100678.69;5014495;28;20116;-76
2022/09/15 05:25:09;;;;;;;9.88;2.00;;;;;;;16.16;68.86;100677.41;5019243;28;20115;-76
2022/09/15 05:27:35;;;;;;;12.40;1.92;;;;;;;16.17;69.10;100682.63;5019917;28;20030;-76
2022/09/15 05:30:01;;;;;;;12.88;2.03;;;;;;;16.21;68.69;100685.72;5034713;28;20029;-77
2022/09/15 05:32:26;;;;;;;11.02;2.08;;;;;;;16.26;68.79;100690.50;5036774;28;20179;-76
2022/09/15 05:34:51;;;;;;;11.48;3.42;;;;;;;16.26;69.42;100696.75;5033812;28;20025;-76
2022/09/15 05:37:17;;;;;;;15.50;2.40;;;;;;;16.28;69.06;100694.66;5033266;28;20101;-76
2022/09/15 05:39:42;;;;;;;19.35;2.22;;;;;;;16.31;69.08;100691.47;5034566;28;20346;-76
2022/09/15 05:42:08;;;;;;;12.82;2.40;;;;;;;16.35;68.95;100690.00;5032055;28;20381;-75
2022/09/15 05:44:33;;;;;;;13.38;2.05;;;;;;;16.39;68.60;100693.91;5031422;28;20060;-76
2022/09/15 05:46:59;;;;;;;20.05;2.20;;;;;;;16.41;68.33;100694.53;5031745;28;20177;-75
2022/09/15 05:49:24;;;;;;;16.83;2.50;;;;;;;16.41;68.87;100689.09;5014827;28;20527;-76
2022/09/15 05:51:50;;;;;;;16.55;1.83;;;;;;;16.42;69.07;100693.47;5014090;28;20128;-75
2022/09/15 05:54:15;;;;;;;22.02;2.13;;;;;;;16.46;69.12;100696.56;5032701;28;20071;-76
2022/09/15 05:56:40;;;;;;;14.15;2.28;;;;;;;16.49;69.13;100698.00;5033088;28;20025;-75
2022/09/15 05:59:06;;;;;;;15.73;2.78;;;;;;;16.53;69.25;100704.63;5032764;28;20487;-78
2022/09/15 06:01:31;;;;;;;14.68;2.38;;;;;;;16.54;68.72;100698.16;5037058;28;20362;-76
2022/09/15 06:03:57;;;;;;;21.67;3.05;;;;;;;16.59;68.56;100706.47;5030963;28;20024;-76
2022/09/15 06:06:23;;;;;;;26.90;3.22;;;;;;;16.56;68.39;100705.03;5018806;28;20064;-75
2022/09/15 06:08:51;;;;;;;16.50;2.60;;;;;;;16.59;67.98;100706.47;5023256;28;20040;-76
2022/09/15 06:11:18;;;;;;;28.13;2.35;;;;;;;16.57;67.79;100703.16;5039601;28;20116;-75
2022/09/15 06:13:45;;;;;;;15.05;2.63;;;;;;;16.62;67.23;100706.84;5020983;28;20108;-76
2022/09/15 06:16:12;;;;;;;18.23;2.25;;;;;;;16.60;67.52;100714.38;5039143;28;20397;-75
2022/09/15 06:18:39;;;;;;;17.52;2.00;;;;;;;16.60;67.58;100719.81;5044968;28;20041;-76
2022/09/15 06:21:06;;;;;;;29.92;2.47;;;;;;;16.66;67.46;100718.09;5032012;28;20132;-76
2022/09/15 06:23:31;;;;;;;19.90;2.07;;;;;;;16.66;67.64;100718.91;5029783;28;20117;-75
2022/09/15 06:26:10;;;;;;;20.02;2.17;;;;;;;16.73;67.65;100723.47;5046004;28;20276;-76
2022/09/15 06:28:36;;;;;;;18.55;2.17;;;;;;;16.84;67.41;100726.28;5028918;28;20037;-77
2022/09/15 06:31:01;;;;;;;16.63;1.70;;;;;;;16.84;66.81;100731.72;5047649;28;20108;-75
2022/09/15 06:33:26;;;;;;;13.43;1.77;;;;;;;16.87;66.55;100731.25;5028602;28;20033;-75
2022/09/15 06:35:52;;;;;;;12.45;1.90;;;;;;;16.94;66.53;100733.09;5045951;28;20030;-76
2022/09/15 06:38:17;;;;;;;17.08;2.08;;;;;;;16.95;66.91;100732.03;5045629;28;20484;-75
2022/09/15 06:40:44;;;;;;;19.77;2.95;;;;;;;16.98;66.73;100735.13;5047955;28;20072;-74
2022/09/15 06:43:09;;;;;;;15.32;1.92;;;;;;;17.04;66.81;100738.84;5047516;28;20199;-75
2022/09/15 06:45:35;;;;;;;13.57;2.15;;;;;;;16.99;67.00;100739.50;5029346;28;20054;-75
2022/09/15 06:48:00;;;;;;;18.75;2.00;;;;;;;17.01;67.38;100736.53;5047035;28;20025;-76
2022/09/15 06:50:26;;;;;;;16.17;1.90;;;;;;;17.03;66.22;100739.88;5047773;28;20535;-75
2022/09/15 06:52:51;;;;;;;14.70;2.10;;;;;;;17.09;66.13;100739.81;5049723;28;20056;-75
2022/09/15 06:55:16;;;;;;;14.13;1.80;;;;;;;17.11;66.01;100745.00;5049460;28;20036;-76
2022/09/15 06:57:42;;;;;;;15.90;2.70;;;;;;;17.11;65.75;100748.56;5050031;28;20026;-76
2022/09/15 07:00:08;;;;;;;9.30;2.03;;;;;;;17.18;66.04;100753.91;5056355;28;20048;-77
2022/09/15 07:02:33;;;;;;;11.27;1.60;;;;;;;17.24;65.31;100749.44;5037505;28;20033;-76
2022/09/15 07:04:59;;;;;;;23.02;2.40;;;;;;;17.28;65.35;100767.81;5051748;28;20044;-76
2022/09/15 07:07:24;;;;;;;16.27;2.35;;;;;;;17.34;65.43;100772.34;5050242;28;20055;-76
2022/09/15 07:09:49;;;;;;;28.10;2.25;;;;;;;17.38;66.17;100780.88;5049914;28;20100;-77
2022/09/15 07:12:15;;;;;;;18.92;2.20;;;;;;;17.22;68.31;100782.34;5047752;28;20089;-74
2022/09/15 07:14:41;;;;;;;26.25;2.38;;;;;;;17.21;68.67;100783.38;5020357;28;20251;-78
2022/09/15 07:17:07;;;;;;;21.83;2.22;;;;;;;17.20;68.53;100783.63;5054076;28;20064;-78
2022/09/15 07:19:32;;;;;;;12.75;2.45;;;;;;;17.17;68.78;100787.63;5051897;28;20030;-77
2022/09/15 07:21:57;;;;;;;13.20;1.92;;;;;;;17.18;68.78;100775.69;5033126;28;20079;-76
2022/09/15 07:24:23;;;;;;;17.25;2.75;;;;;;;17.19;69.10;100781.94;5049699;28;20040;-75
2022/09/15 07:26:48;;;;;;;17.05;2.22;;;;;;;17.22;69.89;100779.63;5050383;28;20025;-75
2022/09/15 07:29:13;;;;;;;17.27;2.17;;;;;;;17.30;69.78;100787.47;5050396;28;20585;-76
2022/09/15 07:31:39;;;;;;;12.10;1.75;;;;;;;17.49;70.09;100782.00;5051000;28;20072;-75
2022/09/15 07:34:05;;;;;;;9.88;1.58;;;;;;;18.03;69.23;100798.44;5049044;28;20083;-77
2022/09/15 07:36:30;;;;;;;13.07;1.75;;;;;;;19.62;64.19;100794.75;5047971;28;20033;-75
2022/09/15 07:38:56;;;;;;;11.18;1.58;;;;;;;21.09;60.03;100792.88;5031451;28;20354;-76
2022/09/15 07:41:23;;;;;;;8.07;1.98;;;;;;;21.99;53.90;100800.81;5033340;28;20037;-76
2022/09/15 07:43:51;;;;;;;9.10;1.52;;;;;;;22.13;51.67;100807.50;5033529;28;20056;-77
2022/09/15 07:46:17;;;;;;;10.85;1.45;;;;;;;21.97;49.65;100803.78;5048504;28;20041;-77
2022/09/15 07:48:44;;;;;;;14.77;1.83;;;;;;;22.07;50.20;100808.56;5045006;28;20025;-76
2022/09/15 07:51:09;;;;;;;7.97;1.25;;;;;;;22.63;48.54;100816.47;5044384;28;20071;-75
2022/09/15 07:53:35;;;;;;;12.82;1.67;;;;;;;22.89;48.44;100810.06;5045674;28;20029;-75
2022/09/15 07:56:00;;;;;;;9.93;1.65;;;;;;;23.82;45.53;100811.34;5027173;28;20121;-75
2022/09/15 07:58:26;;;;;;;15.10;2.00;;;;;;;23.45;46.89;100829.59;5045394;28;20025;-77
2022/09/15 08:00:51;;;;;;;10.60;1.77;;;;;;;22.66;49.90;100826.91;5047234;28;20064;-76
2022/09/15 08:03:16;;;;;;;21.27;2.47;;;;;;;21.98;50.94;100838.31;5049747;28;20555;-75
2022/09/15 08:05:42;;;;;;;12.52;2.15;;;;;;;21.29;53.47;100833.38;5051025;28;20065;-75
2022/09/15 08:08:07;;;;;;;16.00;2.15;;;;;;;20.58;55.30;100835.88;5051036;28;20045;-76
2022/09/15 08:10:33;;;;;;;18.73;2.33;;;;;;;20.36;55.77;100838.50;5048032;28;20075;-76
2022/09/15 08:12:58;;;;;;;12.10;1.77;;;;;;;19.82;56.65;100843.50;5050328;28;20022;-75
2022/09/15 08:15:24;;;;;;;9.25;1.58;;;;;;;19.61;57.98;100853.97;5053525;28;20021;-76
2022/09/15 08:17:50;;;;;;;10.82;2.28;;;;;;;19.40;58.46;100852.72;5035518;28;20034;-75
2022/09/15 08:20:16;;;;;;;10.82;2.40;;;;;;;19.38;58.38;100859.47;5051471;28;20036;-74
2022/09/15 08:22:44;;;;;;;19.52;1.70;;;;;;;19.21;58.66;100859.41;5028873;28;20029;-74
2022/09/15 08:25:09;;;;;;;11.98;1.60;;;;;;;18.82;59.46;100861.78;5044950;28;20028;-75
2022/09/15 08:27:35;;;;;;;13.35;1.65;;;;;;;18.69;61.64;100861.97;5035946;28;20477;-74
2022/09/15 08:30:00;;;;;;;12.57;1.70;;;;;;;18.46;62.78;100874.50;5027937;28;20053;-76
2022/09/15 08:32:25;;;;;;;14.68;1.77;;;;;;;18.22;63.76;100873.59;5030375;28;20036;-76
2022/09/15 08:34:51;;;;;;;15.65;1.88;;;;;;;18.12;64.50;100871.44;5030148;28;20034;-74
2022/09/15 08:37:16;;;;;;;8.20;1.40;;;;;;;18.00;65.89;100881.44;5047959;28;20051;-76
2022/09/15 08:39:42;;;;;;;11.43;1.70;;;;;;;17.94;65.39;100874.19;5040205;28;20037;-75
2022/09/15 08:42:16;;;;;;;10.43;1.63;;;;;;;17.90;65.01;100870.25;5007731;28;20395;-75
2022/09/15 08:44:54;;;;;;;12.27;1.33;;;;;;;17.88;65.62;100875.13;5006081;28;20083;-76
2022/09/15 08:47:59;;;;;;;8.32;1.35;;;;;;;17.87;64.19;100884.34;5031594;28;20037;-76
2022/09/15 08:50:44;;;;;;;11.40;1.35;;;;;;;17.83;62.60;100880.44;4955209;29;20051;-74
2022/09/15 08:53:28;;;;;;;9.43;1.60;;;;;;;17.85;63.52;100889.19;5040883;28;20064;-76
2022/09/15 08:55:59;;;;;;;15.63;1.60;;;;;;;17.87;63.51;100881.63;5025895;28;20029;-77
2022/09/15 08:58:27;;;;;;;11.07;1.50;;;;;;;17.90;62.86;100881.97;5042310;28;20029;-75
2022/09/15 09:01:11;;;;;;;10.75;1.42;;;;;;;17.92;62.27;100884.47;5037552;28;20037;-74
2022/09/15 09:07:14;;;;;;;13.65;1.92;;;;;;;18.00;60.30;100881.44;5014414;28;20062;-78
2022/09/15 09:10:05;;;;;;;13.05;1.63;;;;;;;18.08;60.48;100872.13;5040391;28;20371;-76
2022/09/15 09:12:50;;;;;;;12.35;1.33;;;;;;;18.15;59.50;100881.03;5039408;28;20026;-75
2022/09/15 09:15:38;;;;;;;15.30;2.00;;;;;;;18.23;56.74;100879.88;5022564;28;20060;-75
2022/09/15 09:18:09;;;;;;;11.48;1.65;;;;;;;18.46;56.49;100885.41;4993373;28;20494;-76
2022/09/15 09:20:43;;;;;;;12.20;1.25;;;;;;;18.78;55.89;100887.88;5036183;28;20041;-74
2022/09/15 09:23:14;;;;;;;11.60;2.50;;;;;;;19.04;52.60;100881.94;5039691;28;20339;-74
2022/09/15 09:25:41;;;;;;;11.43;1.63;;;;;;;19.38;51.10;100882.16;5021472;28;20527;-76
2022/09/15 09:28:26;;;;;;;10.48;1.83;;;;;;;19.63;51.18;100892.78;5018430;28;20167;-74
2022/09/15 09:30:54;;;;;;;9.38;1.55;;;;;;;19.82;50.45;100882.56;5020291;28;20071;-75
2022/09/15 09:33:30;;;;;;;9.13;1.40;;;;;;;19.79;50.09;100869.41;5009763;28;20200;-75
2022/09/15 09:35:59;;;;;;;10.52;1.45;;;;;;;19.86;49.19;100872.81;5019751;28;20030;-75
2022/09/15 09:38:29;;;;;;;18.35;2.10;;;;;;;19.88;48.61;100867.09;5020688;28;20105;-74
2022/09/15 09:40:55;;;;;;;6.10;1.10;;;;;;;19.87;47.75;100870.91;5037890;28;20025;-75
2022/09/15 09:43:20;;;;;;;11.07;1.65;;;;;;;19.92;48.51;100876.47;5022173;28;20021;-76
2022/09/15 09:45:45;;;;;;;9.38;1.33;;;;;;;20.05;47.09;100880.81;5025675;28;20473;-76
2022/09/15 09:48:18;;;;;;;14.40;1.60;;;;;;;19.95;45.42;100876.81;5034133;28;20030;-76
2022/09/15 09:50:43;;;;;;;6.93;1.77;;;;;;;19.76;45.89;100879.97;5020351;28;20037;-76
2022/09/15 09:53:28;;;;;;;12.93;1.90;;;;;;;19.78;46.67;100881.41;5036921;28;20017;-76
2022/09/15 09:56:21;;;;;;;9.02;1.92;;;;;;;19.88;46.10;100881.59;5019264;28;20026;-75
2022/09/15 09:58:46;;;;;;;9.88;1.45;;;;;;;20.00;45.59;100883.47;5039854;28;20042;-75
2022/09/15 10:01:18;;;;;;;7.78;1.23;;;;;;;19.97;45.46;100879.31;5033150;28;20051;-76
2022/09/15 10:03:44;;;;;;;21.70;2.30;;;;;;;19.97;45.27;100870.28;5038431;28;20495;-76
2022/09/15 10:06:15;;;;;;;6.70;1.10;;;;;;;19.92;45.90;100880.03;5036355;28;20151;-76
2022/09/15 10:09:04;;;;;;;14.18;1.77;;;;;;;19.98;44.48;100874.66;5034782;28;20037;-75
2022/09/15 10:11:45;;;;;;;9.43;1.20;;;;;;;20.07;44.69;100873.22;5018478;28;20029;-76
2022/09/15 10:14:41;;;;;;;5.97;1.15;;;;;;;20.33;44.51;100871.78;5019934;28;20111;-76
2022/09/15 10:17:43;;;;;;;7.65;1.67;;;;;;;20.70;43.46;100866.72;5003720;28;20389;-76
2022/09/15 10:20:31;;;;;;;9.13;1.00;;;;;;;20.59;41.87;100879.38;5009988;28;20061;-75
2022/09/15 10:23:15;;;;;;;8.68;1.10;;;;;;;20.53;42.24;100868.56;4998383;28;20466;-75
2022/09/15 10:25:40;;;;;;;10.43;1.33;;;;;;;20.53;42.53;100863.09;5015800;28;20385;-75
2022/09/15 10:28:16;;;;;;;9.93;1.65;;;;;;;20.45;41.74;100860.78;5015542;28;20026;-74
2022/09/15 10:31:00;;;;;;;9.60;1.30;;;;;;;20.29;42.68;100874.16;5016195;28;20029;-75
2022/09/15 10:33:28;;;;;;;7.93;1.40;;;;;;;20.34;42.22;100863.31;5040692;28;20036;-75
2022/09/15 10:35:54;;;;;;;7.55;1.30;;;;;;;20.47;42.41;100878.59;5038345;28;20029;-75
2022/09/15 10:38:42;;;;;;;4.85;1.27;;;;;;;20.47;43.20;100873.13;5019956;28;20425;-75
2022/09/15 10:41:21;;;;;;;7.70;1.45;;;;;;;20.56;41.81;100884.50;5018962;28;20029;-75
2022/09/15 10:44:14;;;;;;;13.95;1.50;;;;;;;20.43;43.01;100890.25;5017091;28;20032;-76
2022/09/15 10:46:49;;;;;;;11.27;1.42;;;;;;;20.45;43.94;100888.94;5018580;28;20033;-76
2022/09/15 10:49:28;;;;;;;6.18;1.63;;;;;;;20.32;43.54;100889.25;5017962;28;20021;-75
2022/09/15 10:52:08;;;;;;;8.45;1.30;;;;;;;20.09;45.66;100888.31;5028713;28;20049;-76
2022/09/15 10:54:58;;;;;;;11.35;1.77;;;;;;;19.92;46.34;100888.22;5045420;28;20124;-76
2022/09/15 10:57:32;;;;;;;11.70;1.70;;;;;;;19.81;45.09;100891.84;5035090;28;20026;-76
2022/09/15 11:00:05;;;;;;;12.98;1.73;;;;;;;19.73;45.66;100895.78;5032718;28;20028;-75
2022/09/15 11:03:01;;;;;;;7.72;1.35;;;;;;;19.62;45.77;100893.06;5016960;28;20466;-75
2022/09/15 11:05:26;;;;;;;10.68;1.20;;;;;;;19.60;45.18;100898.75;5026035;28;20532;-76
2022/09/15 11:07:57;;;;;;;11.10;1.75;;;;;;;19.68;45.48;100903.03;5028694;28;20049;-76
2022/09/15 11:10:22;;;;;;;11.20;2.00;;;;;;;19.67;46.24;100895.91;5002310;28;20029;-76
2022/09/15 11:12:54;;;;;;;19.92;1.70;;;;;;;19.63;45.43;100905.63;5016540;28;20052;-75
2022/09/15 11:15:55;;;;;;;17.23;1.83;;;;;;;19.50;46.14;100907.53;5016353;28;20096;-75
2022/09/15 11:18:24;;;;;;;8.93;1.48;;;;;;;19.50;46.30;100914.91;4960558;28;20398;-74
2022/09/15 11:21:10;;;;;;;15.27;1.70;;;;;;;19.52;46.49;100910.84;5016182;28;20600;-75
2022/09/15 11:23:43;;;;;;;9.23;1.40;;;;;;;19.50;47.74;100901.25;5014278;28;20029;-74
2022/09/15 11:26:16;;;;;;;9.73;1.40;;;;;;;19.52;47.18;100902.66;5015532;28;20121;-75
2022/09/15 11:28:54;;;;;;;7.28;1.45;;;;;;;19.51;47.60;100903.75;5016517;28;20030;-74
2022/09/15 11:31:29;;;;;;;6.70;1.50;;;;;;;19.45;47.83;100914.78;4997534;28;20044;-76
2022/09/15 11:34:02;;;;;;;9.98;1.30;;;;;;;19.39;48.91;100913.03;4997599;28;20079;-76
2022/09/15 11:36:35;;;;;;;14.40;2.03;;;;;;;19.35;49.38;100912.66;4999025;28;20034;-76
2022/09/15 11:39:11;;;;;;;8.55;1.65;;;;;;;19.32;50.36;100913.13;5004004;28;20092;-75